Morris, Minnesota
Current Conditions -  °F | °C
As of 8:54 PM on Tuesday 25 Nov 2014 (Local Time) from KBBB Reporting Station
Overcast Overcast  
Wind Chill: 13°   Ceiling: 10000
Heat Index: 25°   Visibility: 10mi
Dew Point: 18°   Wind: 13mph
Humidity: 74%   Direction: 150°SSE
Pressure: 29.91"   Gusts: 18mph
Location:  45.59°N, 95.91°W
Report Text: KBBB 260254Z AUTO 15011G16KT 10SM SCT040 OVC100 M04/M08 A2991 RMK AO2
Loading
Personal Weather Stations






























Interactive Weather Map New forecast layout! Learn more

10-Day Weather Forecast

Advertisements
Track Severe Weather on mobile